LIPZ/VCE METAR and TAF weather

Enter ICAO airport designator
Station Type Date Time Source
LIPZ METAR 2019/02/16 03:20 UTC NOAA

LIPZ 160320Z 27003KT 8000 NSC 02/01 Q1031 NOSIG


Station Type Date Time Source
LIPZ Decoded METAR 2019/02/16 03:20 UTC NOAA

Venezia / Tessera, Italy (LIPZ) 45-30N 012-20E 6M
Feb 15, 2019 - 10:20 PM EST / 2019.02.16 0320 UTC
Wind: from the W (270 degrees) at 3 MPH (3 KT):0
Visibility: 4 mile(s):0
Temperature: 35 F (2 C)
Dew Point: 33 F (1 C)
Relative Humidity: 93%
Pressure (altimeter): 30.45 in. Hg (1031 hPa)
ob: LIPZ 160320Z 27003KT 8000 NSC 02/01 Q1031 NOSIG
cycle: 3

Station Type Date Time Source
LIPZ TAF 2019/02/15 18:21 UTC NOAA

TAF LIPZ 151700Z 1518/1624 VRB05KT CAVOK
TEMPO 1600/1608 2000 BR


Example: see airport list